sensor_id;sensor_type;location;lat;lon;timestamp;P1;durP1;ratioP1;P2;durP2;ratioP2
4375;SDS011;2202;50.866;12.750;2023-05-07T00:00:47;22.90;;;16.90;;
4375;SDS011;2202;50.866;12.750;2023-05-07T00:03:14;24.40;;;16.27;;
4375;SDS011;2202;50.866;12.750;2023-05-07T00:05:43;26.07;;;14.47;;
4375;SDS011;2202;50.866;12.750;2023-05-07T00:08:10;24.53;;;15.43;;
4375;SDS011;2202;50.866;12.750;2023-05-07T00:10:37;23.40;;;14.97;;
4375;SDS011;2202;50.866;12.750;2023-05-07T00:13:04;19.20;;;13.77;;
4375;SDS011;2202;50.866;12.750;2023-05-07T00:15:31;18.20;;;12.70;;
4375;SDS011;2202;50.866;12.750;2023-05-07T00:17:58;16.40;;;11.93;;
4375;SDS011;2202;50.866;12.750;2023-05-07T00:20:25;16.13;;;12.37;;
4375;SDS011;2202;50.866;12.750;2023-05-07T00:22:54;16.70;;;11.53;;
4375;SDS011;2202;50.866;12.750;2023-05-07T00:25:20;19.03;;;12.57;;
4375;SDS011;2202;50.866;12.750;2023-05-07T00:27:47;16.40;;;12.17;;
4375;SDS011;2202;50.866;12.750;2023-05-07T00:30:15;17.20;;;12.77;;
4375;SDS011;2202;50.866;12.750;2023-05-07T00:32:41;16.07;;;11.43;;
4375;SDS011;2202;50.866;12.750;2023-05-07T00:35:10;17.30;;;12.70;;
4375;SDS011;2202;50.866;12.750;2023-05-07T00:37:37;19.73;;;13.37;;
4375;SDS011;2202;50.866;12.750;2023-05-07T00:40:07;18.37;;;12.73;;
4375;SDS011;2202;50.866;12.750;2023-05-07T00:42:34;17.57;;;12.90;;
4375;SDS011;2202;50.866;12.750;2023-05-07T00:45:01;22.17;;;14.37;;
4375;SDS011;2202;50.866;12.750;2023-05-07T00:47:29;21.60;;;13.30;;
4375;SDS011;2202;50.866;12.750;2023-05-07T00:49:56;23.00;;;15.27;;
4375;SDS011;2202;50.866;12.750;2023-05-07T00:52:24;19.17;;;14.47;;
4375;SDS011;2202;50.866;12.750;2023-05-07T00:54:52;24.73;;;15.40;;
4375;SDS011;2202;50.866;12.750;2023-05-07T00:57:21;21.67;;;15.47;;
4375;SDS011;2202;50.866;12.750;2023-05-07T00:59:50;21.63;;;15.70;;
4375;SDS011;2202;50.866;12.750;2023-05-07T01:02:18;22.47;;;15.93;;
4375;SDS011;2202;50.866;12.750;2023-05-07T01:04:45;19.70;;;15.57;;
4375;SDS011;2202;50.866;12.750;2023-05-07T01:07:12;23.13;;;16.20;;
4375;SDS011;2202;50.866;12.750;2023-05-07T01:09:39;19.07;;;14.23;;
4375;SDS011;2202;50.866;12.750;2023-05-07T01:12:06;20.23;;;13.93;;
4375;SDS011;2202;50.866;12.750;2023-05-07T01:14:35;19.50;;;15.10;;
4375;SDS011;2202;50.866;12.750;2023-05-07T01:17:02;21.17;;;14.67;;
4375;SDS011;2202;50.866;12.750;2023-05-07T01:19:29;22.00;;;14.27;;
4375;SDS011;2202;50.866;12.750;2023-05-07T01:22:01;18.07;;;13.90;;
4375;SDS011;2202;50.866;12.750;2023-05-07T01:24:32;22.17;;;14.30;;
4375;SDS011;2202;50.866;12.750;2023-05-07T01:26:59;21.10;;;15.57;;
4375;SDS011;2202;50.866;12.750;2023-05-07T01:29:27;21.83;;;14.33;;
4375;SDS011;2202;50.866;12.750;2023-05-07T01:31:54;23.43;;;14.40;;
4375;SDS011;2202;50.866;12.750;2023-05-07T01:34:24;21.80;;;14.20;;
4375;SDS011;2202;50.866;12.750;2023-05-07T01:36:52;24.10;;;16.33;;
4375;SDS011;2202;50.866;12.750;2023-05-07T01:39:37;28.80;;;17.83;;
4375;SDS011;2202;50.866;12.750;2023-05-07T01:42:06;24.83;;;16.87;;
4375;SDS011;2202;50.866;12.750;2023-05-07T01:44:33;27.97;;;18.40;;
4375;SDS011;2202;50.866;12.750;2023-05-07T01:47:00;29.67;;;20.67;;
4375;SDS011;2202;50.866;12.750;2023-05-07T01:49:28;29.50;;;19.10;;
4375;SDS011;2202;50.866;12.750;2023-05-07T01:51:55;34.40;;;20.47;;
4375;SDS011;2202;50.866;12.750;2023-05-07T01:54:25;35.60;;;21.77;;
4375;SDS011;2202;50.866;12.750;2023-05-07T01:56:55;37.47;;;20.03;;
4375;SDS011;2202;50.866;12.750;2023-05-07T01:59:23;30.13;;;20.80;;
4375;SDS011;2202;50.866;12.750;2023-05-07T02:01:50;26.37;;;18.90;;
4375;SDS011;2202;50.866;12.750;2023-05-07T02:04:17;34.00;;;21.67;;
4375;SDS011;2202;50.866;12.750;2023-05-07T02:06:44;33.40;;;21.93;;
4375;SDS011;2202;50.866;12.750;2023-05-07T02:09:11;35.10;;;23.33;;
4375;SDS011;2202;50.866;12.750;2023-05-07T02:11:38;38.20;;;22.90;;
4375;SDS011;2202;50.866;12.750;2023-05-07T02:14:06;34.33;;;22.40;;
4375;SDS011;2202;50.866;12.750;2023-05-07T02:16:33;36.00;;;21.80;;
4375;SDS011;2202;50.866;12.750;2023-05-07T02:19:00;43.33;;;22.10;;
4375;SDS011;2202;50.866;12.750;2023-05-07T02:21:26;33.77;;;19.70;;
4375;SDS011;2202;50.866;12.750;2023-05-07T02:23:53;42.17;;;23.33;;
4375;SDS011;2202;50.866;12.750;2023-05-07T02:26:20;34.80;;;20.63;;
4375;SDS011;2202;50.866;12.750;2023-05-07T02:28:47;34.97;;;21.70;;
4375;SDS011;2202;50.866;12.750;2023-05-07T02:31:15;30.80;;;19.30;;
4375;SDS011;2202;50.866;12.750;2023-05-07T02:33:42;33.20;;;20.77;;
4375;SDS011;2202;50.866;12.750;2023-05-07T02:36:10;34.93;;;20.87;;
4375;SDS011;2202;50.866;12.750;2023-05-07T02:38:38;34.80;;;22.67;;
4375;SDS011;2202;50.866;12.750;2023-05-07T02:41:05;35.20;;;21.70;;
4375;SDS011;2202;50.866;12.750;2023-05-07T02:43:32;32.67;;;21.23;;
4375;SDS011;2202;50.866;12.750;2023-05-07T02:46:02;37.37;;;22.87;;
4375;SDS011;2202;50.866;12.750;2023-05-07T02:48:31;40.10;;;22.50;;
4375;SDS011;2202;50.866;12.750;2023-05-07T02:50:59;37.97;;;24.80;;
4375;SDS011;2202;50.866;12.750;2023-05-07T02:53:26;36.80;;;21.10;;
4375;SDS011;2202;50.866;12.750;2023-05-07T02:55:55;35.10;;;21.03;;
4375;SDS011;2202;50.866;12.750;2023-05-07T02:58:23;34.27;;;22.40;;
4375;SDS011;2202;50.866;12.750;2023-05-07T03:00:50;34.20;;;20.90;;
4375;SDS011;2202;50.866;12.750;2023-05-07T03:03:17;38.07;;;21.40;;
4375;SDS011;2202;50.866;12.750;2023-05-07T03:05:45;36.40;;;21.80;;
4375;SDS011;2202;50.866;12.750;2023-05-07T03:08:12;37.97;;;23.03;;
4375;SDS011;2202;50.866;12.750;2023-05-07T03:10:39;36.90;;;22.17;;
4375;SDS011;2202;50.866;12.750;2023-05-07T03:13:06;33.60;;;22.20;;
4375;SDS011;2202;50.866;12.750;2023-05-07T03:15:33;37.00;;;21.73;;
4375;SDS011;2202;50.866;12.750;2023-05-07T03:18:00;39.00;;;24.27;;
4375;SDS011;2202;50.866;12.750;2023-05-07T03:20:27;44.80;;;25.37;;
4375;SDS011;2202;50.866;12.750;2023-05-07T03:22:55;41.50;;;23.47;;
4375;SDS011;2202;50.866;12.750;2023-05-07T03:25:22;36.10;;;22.37;;
4375;SDS011;2202;50.866;12.750;2023-05-07T03:27:49;37.50;;;22.93;;
4375;SDS011;2202;50.866;12.750;2023-05-07T03:30:16;38.47;;;23.70;;
4375;SDS011;2202;50.866;12.750;2023-05-07T03:32:43;40.23;;;23.37;;
4375;SDS011;2202;50.866;12.750;2023-05-07T03:35:10;36.43;;;22.57;;
4375;SDS011;2202;50.866;12.750;2023-05-07T03:37:37;43.03;;;24.93;;
4375;SDS011;2202;50.866;12.750;2023-05-07T03:40:06;43.97;;;23.57;;
4375;SDS011;2202;50.866;12.750;2023-05-07T03:42:35;37.00;;;21.47;;
4375;SDS011;2202;50.866;12.750;2023-05-07T03:45:02;42.63;;;24.10;;
4375;SDS011;2202;50.866;12.750;2023-05-07T03:47:29;39.93;;;22.23;;
4375;SDS011;2202;50.866;12.750;2023-05-07T03:49:56;35.50;;;21.10;;
4375;SDS011;2202;50.866;12.750;2023-05-07T03:52:23;35.70;;;20.83;;
4375;SDS011;2202;50.866;12.750;2023-05-07T03:54:51;38.43;;;22.17;;
4375;SDS011;2202;50.866;12.750;2023-05-07T03:57:19;40.07;;;23.33;;
4375;SDS011;2202;50.866;12.750;2023-05-07T03:59:46;31.43;;;20.00;;
4375;SDS011;2202;50.866;12.750;2023-05-07T04:02:13;28.77;;;20.17;;
4375;SDS011;2202;50.866;12.750;2023-05-07T04:04:40;38.33;;;21.27;;
4375;SDS011;2202;50.866;12.750;2023-05-07T04:07:06;36.60;;;19.97;;
4375;SDS011;2202;50.866;12.750;2023-05-07T04:09:33;31.27;;;21.00;;
4375;SDS011;2202;50.866;12.750;2023-05-07T04:12:00;33.20;;;19.67;;
4375;SDS011;2202;50.866;12.750;2023-05-07T04:14:28;34.37;;;20.00;;
4375;SDS011;2202;50.866;12.750;2023-05-07T04:16:57;30.63;;;21.10;;
4375;SDS011;2202;50.866;12.750;2023-05-07T04:19:24;31.93;;;20.27;;
4375;SDS011;2202;50.866;12.750;2023-05-07T04:21:50;28.10;;;20.10;;
4375;SDS011;2202;50.866;12.750;2023-05-07T04:24:17;30.97;;;20.10;;
4375;SDS011;2202;50.866;12.750;2023-05-07T04:26:45;31.73;;;19.43;;
4375;SDS011;2202;50.866;12.750;2023-05-07T04:29:11;31.60;;;19.07;;
4375;SDS011;2202;50.866;12.750;2023-05-07T04:31:40;34.53;;;19.97;;
4375;SDS011;2202;50.866;12.750;2023-05-07T04:34:09;33.40;;;20.27;;
4375;SDS011;2202;50.866;12.750;2023-05-07T04:36:36;30.40;;;18.60;;
4375;SDS011;2202;50.866;12.750;2023-05-07T04:39:04;30.37;;;18.87;;
4375;SDS011;2202;50.866;12.750;2023-05-07T04:41:31;28.20;;;17.50;;
4375;SDS011;2202;50.866;12.750;2023-05-07T04:43:58;31.33;;;18.30;;
4375;SDS011;2202;50.866;12.750;2023-05-07T04:46:25;31.10;;;18.10;;
4375;SDS011;2202;50.866;12.750;2023-05-07T04:48:53;31.63;;;18.07;;
4375;SDS011;2202;50.866;12.750;2023-05-07T04:51:20;25.73;;;17.13;;
4375;SDS011;2202;50.866;12.750;2023-05-07T04:53:47;29.27;;;16.70;;
4375;SDS011;2202;50.866;12.750;2023-05-07T04:56:14;26.67;;;17.50;;
4375;SDS011;2202;50.866;12.750;2023-05-07T04:58:40;27.43;;;17.27;;
4375;SDS011;2202;50.866;12.750;2023-05-07T05:01:07;28.90;;;17.10;;
4375;SDS011;2202;50.866;12.750;2023-05-07T05:03:34;29.00;;;17.20;;
4375;SDS011;2202;50.866;12.750;2023-05-07T05:06:02;26.97;;;17.03;;
4375;SDS011;2202;50.866;12.750;2023-05-07T05:08:29;29.20;;;16.70;;
4375;SDS011;2202;50.866;12.750;2023-05-07T05:10:56;29.23;;;17.03;;
4375;SDS011;2202;50.866;12.750;2023-05-07T05:13:23;28.90;;;16.97;;
4375;SDS011;2202;50.866;12.750;2023-05-07T05:15:50;27.37;;;18.50;;
4375;SDS011;2202;50.866;12.750;2023-05-07T05:18:16;38.93;;;20.53;;
4375;SDS011;2202;50.866;12.750;2023-05-07T05:20:43;29.83;;;19.97;;
4375;SDS011;2202;50.866;12.750;2023-05-07T05:23:11;31.23;;;20.30;;
4375;SDS011;2202;50.866;12.750;2023-05-07T05:25:38;28.40;;;18.70;;
4375;SDS011;2202;50.866;12.750;2023-05-07T05:28:05;37.87;;;21.20;;
4375;SDS011;2202;50.866;12.750;2023-05-07T05:30:32;37.40;;;23.87;;
4375;SDS011;2202;50.866;12.750;2023-05-07T05:32:59;36.40;;;23.07;;
4375;SDS011;2202;50.866;12.750;2023-05-07T05:35:26;38.77;;;23.77;;
4375;SDS011;2202;50.866;12.750;2023-05-07T05:37:53;37.73;;;23.23;;
4375;SDS011;2202;50.866;12.750;2023-05-07T05:40:21;39.23;;;24.10;;
4375;SDS011;2202;50.866;12.750;2023-05-07T05:42:48;33.50;;;23.43;;
4375;SDS011;2202;50.866;12.750;2023-05-07T05:45:14;38.73;;;23.90;;
4375;SDS011;2202;50.866;12.750;2023-05-07T05:47:42;33.77;;;22.37;;
4375;SDS011;2202;50.866;12.750;2023-05-07T05:50:09;34.13;;;21.63;;
4375;SDS011;2202;50.866;12.750;2023-05-07T05:52:36;37.43;;;23.40;;
4375;SDS011;2202;50.866;12.750;2023-05-07T05:55:03;35.77;;;20.83;;
4375;SDS011;2202;50.866;12.750;2023-05-07T05:57:32;33.03;;;21.53;;
4375;SDS011;2202;50.866;12.750;2023-05-07T05:59:59;37.83;;;24.27;;
4375;SDS011;2202;50.866;12.750;2023-05-07T06:02:26;40.20;;;24.53;;
4375;SDS011;2202;50.866;12.750;2023-05-07T06:04:53;34.27;;;21.03;;
4375;SDS011;2202;50.866;12.750;2023-05-07T06:07:20;36.13;;;22.63;;
4375;SDS011;2202;50.866;12.750;2023-05-07T06:09:47;35.60;;;23.40;;
4375;SDS011;2202;50.866;12.750;2023-05-07T06:12:13;37.87;;;24.00;;
4375;SDS011;2202;50.866;12.750;2023-05-07T06:14:43;45.90;;;25.10;;
4375;SDS011;2202;50.866;12.750;2023-05-07T06:17:10;37.00;;;22.57;;
4375;SDS011;2202;50.866;12.750;2023-05-07T06:19:37;37.63;;;20.97;;
4375;SDS011;2202;50.866;12.750;2023-05-07T06:22:04;32.23;;;20.27;;
4375;SDS011;2202;50.866;12.750;2023-05-07T06:24:30;34.47;;;21.50;;
4375;SDS011;2202;50.866;12.750;2023-05-07T06:26:57;32.43;;;21.63;;
4375;SDS011;2202;50.866;12.750;2023-05-07T06:29:24;32.90;;;21.03;;
4375;SDS011;2202;50.866;12.750;2023-05-07T06:31:53;40.00;;;22.47;;
4375;SDS011;2202;50.866;12.750;2023-05-07T06:34:19;33.10;;;21.13;;
4375;SDS011;2202;50.866;12.750;2023-05-07T06:36:46;34.80;;;21.87;;
4375;SDS011;2202;50.866;12.750;2023-05-07T06:39:13;29.77;;;21.20;;
4375;SDS011;2202;50.866;12.750;2023-05-07T06:41:40;30.53;;;19.43;;
4375;SDS011;2202;50.866;12.750;2023-05-07T06:44:07;31.97;;;19.90;;
4375;SDS011;2202;50.866;12.750;2023-05-07T06:46:33;43.13;;;28.10;;
4375;SDS011;2202;50.866;12.750;2023-05-07T06:49:02;30.10;;;19.57;;
4375;SDS011;2202;50.866;12.750;2023-05-07T06:51:28;31.33;;;19.50;;
4375;SDS011;2202;50.866;12.750;2023-05-07T06:53:55;29.27;;;18.77;;
4375;SDS011;2202;50.866;12.750;2023-05-07T06:56:22;32.57;;;19.10;;
4375;SDS011;2202;50.866;12.750;2023-05-07T06:58:50;26.97;;;18.10;;
4375;SDS011;2202;50.866;12.750;2023-05-07T07:01:16;29.80;;;18.63;;
4375;SDS011;2202;50.866;12.750;2023-05-07T07:03:43;29.17;;;19.23;;
4375;SDS011;2202;50.866;12.750;2023-05-07T07:06:11;30.87;;;18.80;;
4375;SDS011;2202;50.866;12.750;2023-05-07T07:08:38;29.63;;;18.20;;
4375;SDS011;2202;50.866;12.750;2023-05-07T07:11:05;24.90;;;16.73;;
4375;SDS011;2202;50.866;12.750;2023-05-07T07:13:32;33.37;;;18.10;;
4375;SDS011;2202;50.866;12.750;2023-05-07T07:15:59;28.73;;;19.40;;
4375;SDS011;2202;50.866;12.750;2023-05-07T07:18:26;25.93;;;18.93;;
4375;SDS011;2202;50.866;12.750;2023-05-07T07:20:53;33.30;;;21.40;;
4375;SDS011;2202;50.866;12.750;2023-05-07T07:23:21;27.37;;;20.40;;
4375;SDS011;2202;50.866;12.750;2023-05-07T07:25:48;29.30;;;19.90;;
4375;SDS011;2202;50.866;12.750;2023-05-07T07:28:15;30.03;;;20.50;;
4375;SDS011;2202;50.866;12.750;2023-05-07T07:30:42;26.50;;;18.50;;
4375;SDS011;2202;50.866;12.750;2023-05-07T07:33:09;25.27;;;18.37;;
4375;SDS011;2202;50.866;12.750;2023-05-07T07:35:36;26.93;;;19.83;;
4375;SDS011;2202;50.866;12.750;2023-05-07T07:38:02;28.33;;;19.27;;
4375;SDS011;2202;50.866;12.750;2023-05-07T07:40:31;25.77;;;19.00;;
4375;SDS011;2202;50.866;12.750;2023-05-07T07:42:58;25.40;;;17.40;;
4375;SDS011;2202;50.866;12.750;2023-05-07T07:45:26;26.03;;;17.20;;
4375;SDS011;2202;50.866;12.750;2023-05-07T07:47:53;23.17;;;17.13;;
4375;SDS011;2202;50.866;12.750;2023-05-07T07:50:20;24.60;;;16.80;;
4375;SDS011;2202;50.866;12.750;2023-05-07T07:52:47;26.50;;;18.40;;
4375;SDS011;2202;50.866;12.750;2023-05-07T07:55:15;21.30;;;15.23;;
4375;SDS011;2202;50.866;12.750;2023-05-07T07:57:47;22.93;;;17.37;;
4375;SDS011;2202;50.866;12.750;2023-05-07T08:00:14;26.90;;;17.60;;
4375;SDS011;2202;50.866;12.750;2023-05-07T08:02:42;21.03;;;15.63;;
4375;SDS011;2202;50.866;12.750;2023-05-07T08:05:09;21.60;;;15.23;;
4375;SDS011;2202;50.866;12.750;2023-05-07T08:07:36;25.27;;;15.00;;
4375;SDS011;2202;50.866;12.750;2023-05-07T08:10:03;17.03;;;14.00;;
4375;SDS011;2202;50.866;12.750;2023-05-07T08:12:30;20.47;;;14.80;;
4375;SDS011;2202;50.866;12.750;2023-05-07T08:14:58;21.67;;;15.30;;
4375;SDS011;2202;50.866;12.750;2023-05-07T08:17:25;19.83;;;13.90;;
4375;SDS011;2202;50.866;12.750;2023-05-07T08:19:51;19.90;;;14.13;;
4375;SDS011;2202;50.866;12.750;2023-05-07T08:22:18;18.93;;;14.03;;
4375;SDS011;2202;50.866;12.750;2023-05-07T08:24:46;16.67;;;12.97;;
4375;SDS011;2202;50.866;12.750;2023-05-07T08:27:13;20.67;;;14.30;;
4375;SDS011;2202;50.866;12.750;2023-05-07T08:29:40;17.17;;;12.13;;
4375;SDS011;2202;50.866;12.750;2023-05-07T08:32:08;19.10;;;14.20;;
4375;SDS011;2202;50.866;12.750;2023-05-07T08:34:35;18.03;;;13.60;;
4375;SDS011;2202;50.866;12.750;2023-05-07T08:37:02;17.93;;;13.20;;
4375;SDS011;2202;50.866;12.750;2023-05-07T08:39:29;17.53;;;13.33;;
4375;SDS011;2202;50.866;12.750;2023-05-07T08:41:56;19.40;;;13.37;;
4375;SDS011;2202;50.866;12.750;2023-05-07T08:44:25;17.27;;;13.20;;
4375;SDS011;2202;50.866;12.750;2023-05-07T08:46:53;15.73;;;13.27;;
4375;SDS011;2202;50.866;12.750;2023-05-07T08:49:24;14.90;;;11.60;;
4375;SDS011;2202;50.866;12.750;2023-05-07T08:51:50;13.93;;;10.50;;
4375;SDS011;2202;50.866;12.750;2023-05-07T08:54:17;14.33;;;11.17;;
4375;SDS011;2202;50.866;12.750;2023-05-07T08:56:46;11.70;;;9.50;;
4375;SDS011;2202;50.866;12.750;2023-05-07T08:59:13;13.47;;;10.00;;
4375;SDS011;2202;50.866;12.750;2023-05-07T09:01:40;11.60;;;9.93;;
4375;SDS011;2202;50.866;12.750;2023-05-07T09:04:07;13.83;;;11.00;;
4375;SDS011;2202;50.866;12.750;2023-05-07T09:06:35;11.80;;;10.10;;
4375;SDS011;2202;50.866;12.750;2023-05-07T09:09:03;11.53;;;9.50;;
4375;SDS011;2202;50.866;12.750;2023-05-07T09:11:30;10.83;;;9.73;;
4375;SDS011;2202;50.866;12.750;2023-05-07T09:13:57;11.10;;;9.10;;
4375;SDS011;2202;50.866;12.750;2023-05-07T09:16:26;12.10;;;9.80;;
4375;SDS011;2202;50.866;12.750;2023-05-07T09:18:57;11.90;;;10.30;;
4375;SDS011;2202;50.866;12.750;2023-05-07T09:21:25;13.50;;;10.53;;
4375;SDS011;2202;50.866;12.750;2023-05-07T09:23:54;13.33;;;10.50;;
4375;SDS011;2202;50.866;12.750;2023-05-07T09:26:21;12.90;;;10.63;;
4375;SDS011;2202;50.866;12.750;2023-05-07T09:28:49;12.90;;;10.97;;
4375;SDS011;2202;50.866;12.750;2023-05-07T09:31:16;12.50;;;10.53;;
4375;SDS011;2202;50.866;12.750;2023-05-07T09:33:42;13.60;;;11.20;;
4375;SDS011;2202;50.866;12.750;2023-05-07T09:36:09;13.97;;;12.50;;
4375;SDS011;2202;50.866;12.750;2023-05-07T09:38:37;13.13;;;11.57;;
4375;SDS011;2202;50.866;12.750;2023-05-07T09:41:06;17.13;;;13.10;;
4375;SDS011;2202;50.866;12.750;2023-05-07T09:43:34;14.50;;;12.80;;
4375;SDS011;2202;50.866;12.750;2023-05-07T09:46:02;14.77;;;12.53;;
4375;SDS011;2202;50.866;12.750;2023-05-07T09:48:32;14.03;;;11.90;;
4375;SDS011;2202;50.866;12.750;2023-05-07T09:51:03;12.40;;;10.97;;
4375;SDS011;2202;50.866;12.750;2023-05-07T09:53:37;11.23;;;10.13;;
4375;SDS011;2202;50.866;12.750;2023-05-07T09:56:07;15.67;;;12.10;;
4375;SDS011;2202;50.866;12.750;2023-05-07T09:58:36;14.13;;;11.50;;
4375;SDS011;2202;50.866;12.750;2023-05-07T10:01:04;12.77;;;10.93;;
4375;SDS011;2202;50.866;12.750;2023-05-07T10:03:31;15.00;;;12.27;;
4375;SDS011;2202;50.866;12.750;2023-05-07T10:06:01;10.80;;;9.47;;
4375;SDS011;2202;50.866;12.750;2023-05-07T10:08:30;14.23;;;11.17;;
4375;SDS011;2202;50.866;12.750;2023-05-07T10:10:57;11.00;;;9.80;;
4375;SDS011;2202;50.866;12.750;2023-05-07T10:13:27;10.40;;;9.40;;
4375;SDS011;2202;50.866;12.750;2023-05-07T10:15:54;11.17;;;10.07;;
4375;SDS011;2202;50.866;12.750;2023-05-07T10:18:22;10.80;;;8.57;;
4375;SDS011;2202;50.866;12.750;2023-05-07T10:20:54;9.60;;;8.60;;
4375;SDS011;2202;50.866;12.750;2023-05-07T10:23:28;9.00;;;8.03;;
4375;SDS011;2202;50.866;12.750;2023-05-07T10:25:57;9.17;;;8.27;;
4375;SDS011;2202;50.866;12.750;2023-05-07T10:28:27;9.37;;;8.47;;
4375;SDS011;2202;50.866;12.750;2023-05-07T10:30:58;9.80;;;8.80;;
4375;SDS011;2202;50.866;12.750;2023-05-07T10:33:33;9.27;;;8.37;;
4375;SDS011;2202;50.866;12.750;2023-05-07T10:36:02;9.60;;;8.60;;
4375;SDS011;2202;50.866;12.750;2023-05-07T10:38:30;9.80;;;8.90;;
4375;SDS011;2202;50.866;12.750;2023-05-07T10:40:57;9.27;;;8.50;;
4375;SDS011;2202;50.866;12.750;2023-05-07T10:43:24;8.37;;;7.67;;
4375;SDS011;2202;50.866;12.750;2023-05-07T10:46:10;7.90;;;7.30;;
4375;SDS011;2202;50.866;12.750;2023-05-07T10:51:36;7.97;;;7.27;;
4375;SDS011;2202;50.866;12.750;2023-05-07T10:54:19;6.70;;;6.10;;
4375;SDS011;2202;50.866;12.750;2023-05-07T10:56:47;8.57;;;7.17;;
4375;SDS011;2202;50.866;12.750;2023-05-07T10:59:35;9.10;;;8.20;;
4375;SDS011;2202;50.866;12.750;2023-05-07T11:02:08;9.80;;;8.90;;
4375;SDS011;2202;50.866;12.750;2023-05-07T11:04:39;9.93;;;8.77;;
4375;SDS011;2202;50.866;12.750;2023-05-07T11:10:01;9.37;;;8.50;;
4375;SDS011;2202;50.866;12.750;2023-05-07T11:18:12;10.80;;;9.80;;
4375;SDS011;2202;50.866;12.750;2023-05-07T11:26:42;9.40;;;8.50;;
4375;SDS011;2202;50.866;12.750;2023-05-07T11:29:11;11.37;;;10.27;;
4375;SDS011;2202;50.866;12.750;2023-05-07T11:31:40;10.03;;;9.13;;
4375;SDS011;2202;50.866;12.750;2023-05-07T11:34:07;11.20;;;9.83;;
4375;SDS011;2202;50.866;12.750;2023-05-07T11:36:35;10.17;;;9.03;;
4375;SDS011;2202;50.866;12.750;2023-05-07T11:39:22;11.43;;;9.80;;
4375;SDS011;2202;50.866;12.750;2023-05-07T11:41:50;9.17;;;8.30;;
4375;SDS011;2202;50.866;12.750;2023-05-07T11:44:17;10.27;;;9.17;;
4375;SDS011;2202;50.866;12.750;2023-05-07T11:46:45;9.90;;;8.97;;
4375;SDS011;2202;50.866;12.750;2023-05-07T11:49:13;9.33;;;8.50;;
4375;SDS011;2202;50.866;12.750;2023-05-07T11:51:40;9.37;;;8.50;;
4375;SDS011;2202;50.866;12.750;2023-05-07T11:54:08;8.90;;;8.10;;
4375;SDS011;2202;50.866;12.750;2023-05-07T11:56:36;9.17;;;8.23;;
4375;SDS011;2202;50.866;12.750;2023-05-07T11:59:04;9.53;;;8.63;;
4375;SDS011;2202;50.866;12.750;2023-05-07T12:01:31;9.37;;;8.47;;
4375;SDS011;2202;50.866;12.750;2023-05-07T12:04:00;9.97;;;8.97;;
4375;SDS011;2202;50.866;12.750;2023-05-07T12:06:30;11.17;;;9.27;;
4375;SDS011;2202;50.866;12.750;2023-05-07T12:08:57;9.33;;;8.43;;
4375;SDS011;2202;50.866;12.750;2023-05-07T12:11:24;9.50;;;8.07;;
4375;SDS011;2202;50.866;12.750;2023-05-07T12:13:53;9.43;;;8.10;;
4375;SDS011;2202;50.866;12.750;2023-05-07T12:16:21;9.20;;;8.30;;
4375;SDS011;2202;50.866;12.750;2023-05-07T12:18:48;8.70;;;7.90;;
4375;SDS011;2202;50.866;12.750;2023-05-07T12:21:19;8.70;;;7.80;;
4375;SDS011;2202;50.866;12.750;2023-05-07T12:23:46;9.30;;;8.40;;
4375;SDS011;2202;50.866;12.750;2023-05-07T12:26:13;9.13;;;7.93;;
4375;SDS011;2202;50.866;12.750;2023-05-07T12:28:40;9.47;;;8.50;;
4375;SDS011;2202;50.866;12.750;2023-05-07T12:31:07;11.43;;;8.20;;
4375;SDS011;2202;50.866;12.750;2023-05-07T12:33:34;8.63;;;7.47;;
4375;SDS011;2202;50.866;12.750;2023-05-07T12:36:06;9.07;;;8.17;;
4375;SDS011;2202;50.866;12.750;2023-05-07T12:38:38;9.20;;;7.37;;
4375;SDS011;2202;50.866;12.750;2023-05-07T12:41:06;9.03;;;8.07;;
4375;SDS011;2202;50.866;12.750;2023-05-07T12:43:34;9.57;;;8.67;;
4375;SDS011;2202;50.866;12.750;2023-05-07T12:46:01;8.30;;;7.50;;
4375;SDS011;2202;50.866;12.750;2023-05-07T12:48:30;9.10;;;8.20;;
4375;SDS011;2202;50.866;12.750;2023-05-07T12:50:57;10.50;;;7.83;;
4375;SDS011;2202;50.866;12.750;2023-05-07T12:53:25;8.83;;;7.93;;
4375;SDS011;2202;50.866;12.750;2023-05-07T12:55:54;8.70;;;7.80;;
4375;SDS011;2202;50.866;12.750;2023-05-07T12:58:24;7.83;;;7.03;;
4375;SDS011;2202;50.866;12.750;2023-05-07T13:00:52;9.00;;;8.07;;
4375;SDS011;2202;50.866;12.750;2023-05-07T13:03:23;10.63;;;9.07;;
4375;SDS011;2202;50.866;12.750;2023-05-07T13:05:51;8.47;;;7.67;;
4375;SDS011;2202;50.866;12.750;2023-05-07T13:08:29;9.53;;;7.50;;
4375;SDS011;2202;50.866;12.750;2023-05-07T13:10:59;10.43;;;8.90;;
4375;SDS011;2202;50.866;12.750;2023-05-07T13:13:28;10.40;;;8.30;;
4375;SDS011;2202;50.866;12.750;2023-05-07T13:15:55;11.00;;;9.47;;
4375;SDS011;2202;50.866;12.750;2023-05-07T13:18:23;10.73;;;9.37;;
4375;SDS011;2202;50.866;12.750;2023-05-07T13:20:50;10.00;;;9.00;;
4375;SDS011;2202;50.866;12.750;2023-05-07T13:23:17;9.97;;;8.80;;
4375;SDS011;2202;50.866;12.750;2023-05-07T13:25:44;10.90;;;8.80;;
4375;SDS011;2202;50.866;12.750;2023-05-07T13:28:13;9.70;;;8.70;;
4375;SDS011;2202;50.866;12.750;2023-05-07T13:30:39;11.13;;;9.50;;
4375;SDS011;2202;50.866;12.750;2023-05-07T13:33:06;11.07;;;9.70;;
4375;SDS011;2202;50.866;12.750;2023-05-07T13:35:33;10.23;;;9.03;;
4375;SDS011;2202;50.866;12.750;2023-05-07T13:38:00;12.27;;;9.63;;
4375;SDS011;2202;50.866;12.750;2023-05-07T13:40:27;10.03;;;8.60;;
4375;SDS011;2202;50.866;12.750;2023-05-07T13:42:56;11.10;;;9.53;;
4375;SDS011;2202;50.866;12.750;2023-05-07T13:45:24;12.00;;;10.03;;
4375;SDS011;2202;50.866;12.750;2023-05-07T13:47:51;13.60;;;9.90;;
4375;SDS011;2202;50.866;12.750;2023-05-07T13:50:18;9.07;;;8.17;;
4375;SDS011;2202;50.866;12.750;2023-05-07T13:52:45;11.30;;;8.70;;
4375;SDS011;2202;50.866;12.750;2023-05-07T13:55:15;9.90;;;8.87;;
4375;SDS011;2202;50.866;12.750;2023-05-07T13:57:42;9.83;;;8.57;;
4375;SDS011;2202;50.866;12.750;2023-05-07T14:00:10;9.17;;;8.27;;
4375;SDS011;2202;50.866;12.750;2023-05-07T14:02:39;10.07;;;8.43;;
4375;SDS011;2202;50.866;12.750;2023-05-07T14:05:06;8.33;;;7.53;;
4375;SDS011;2202;50.866;12.750;2023-05-07T14:07:34;10.23;;;9.20;;
4375;SDS011;2202;50.866;12.750;2023-05-07T14:10:00;9.87;;;8.57;;
4375;SDS011;2202;50.866;12.750;2023-05-07T14:12:27;9.10;;;8.20;;
4375;SDS011;2202;50.866;12.750;2023-05-07T14:14:54;8.80;;;7.53;;
4375;SDS011;2202;50.866;12.750;2023-05-07T14:17:21;10.80;;;8.37;;
4375;SDS011;2202;50.866;12.750;2023-05-07T14:19:51;11.60;;;8.47;;
4375;SDS011;2202;50.866;12.750;2023-05-07T14:22:19;8.27;;;7.33;;
4375;SDS011;2202;50.866;12.750;2023-05-07T14:24:46;8.87;;;7.80;;
4375;SDS011;2202;50.866;12.750;2023-05-07T14:27:13;9.27;;;7.80;;
4375;SDS011;2202;50.866;12.750;2023-05-07T14:29:40;9.17;;;7.63;;
4375;SDS011;2202;50.866;12.750;2023-05-07T14:32:07;10.50;;;8.17;;
4375;SDS011;2202;50.866;12.750;2023-05-07T14:34:34;11.83;;;8.70;;
4375;SDS011;2202;50.866;12.750;2023-05-07T14:37:02;11.27;;;7.77;;
4375;SDS011;2202;50.866;12.750;2023-05-07T14:39:29;8.87;;;7.97;;
4375;SDS011;2202;50.866;12.750;2023-05-07T14:41:56;9.50;;;7.33;;
4375;SDS011;2202;50.866;12.750;2023-05-07T14:44:23;9.50;;;7.40;;
4375;SDS011;2202;50.866;12.750;2023-05-07T14:46:50;10.07;;;8.03;;
4375;SDS011;2202;50.866;12.750;2023-05-07T14:49:17;8.70;;;7.50;;
4375;SDS011;2202;50.866;12.750;2023-05-07T14:51:44;8.40;;;7.50;;
4375;SDS011;2202;50.866;12.750;2023-05-07T14:54:13;9.90;;;8.27;;
4375;SDS011;2202;50.866;12.750;2023-05-07T14:56:40;11.87;;;8.87;;
4375;SDS011;2202;50.866;12.750;2023-05-07T14:59:08;10.57;;;7.40;;
4375;SDS011;2202;50.866;12.750;2023-05-07T15:01:35;13.37;;;9.30;;